D/T METAR WX W/DIR W/SPE G/SPE TEMP DEWP
9/12/19 11:56 EGVA 091156Z AUTO 31011G18KT 9999 CLR 09/02 A2995 RMK AO2 PK WND 31027/1056 SLP147 60000 70018 T00870023 10091 20070 52058 NW (310°) 12.7mph 20.7mph 8.7°C 2.3°C
9/12/19 10:56 EGVA 091056Z AUTO 33013G23KT 9999 CLR 09/01 A2990 RMK AO2 PK WND 32027/26 SLP131 T00880010 NNW (330°) 15.0mph 26.5mph 8.8°C 1°C
9/12/19 09:56 EGVA 090956Z AUTO 33016G21KT 9999 CLR 08/03 A2985 RMK AO2 PRESRR SLP114 T00840026 NNW (330°) 18.4mph 24.2mph 8.4°C 2.6°C
9/12/19 08:56 EGVA 090856Z AUTO 31014G18KT 9999 CLR 08/03 A2977 RMK AO2 PRESRR SLP086 60000 T00760031 52086 NW (310°) 16.1mph 20.7mph 7.6°C 3.1°C
9/12/19 08:01 EGVA 090801Z AUTO 30008G14KT 9999 SCT038 07/03 A2970 RMK AO2 SLP063 WNW (300°) 9.2mph 16.1mph 7°C 3°C
9/12/19 07:46 EGVA 090746Z AUTO 33012G19KT 9999 BKN038 08/03 A2968 RMK AO2 PRESRR SLP056 NNW (330°) 13.8mph 21.9mph 8°C 3°C
9/12/19 06:56 EGVA 090656Z AUTO 31015G24KT 9999 CLR 08/04 A2961 RMK AO2 PK WND 33031/29 DZE0558 PRESRR SLP032 P0000 T00780042 NW (310°) 17.3mph 27.6mph 7.8°C 4.2°C
9/12/19 06:03 EGVA 090603Z AUTO 31017G26KT 9999 SCT034 08/04 A2952 RMK AO2 DZE0558 SLP002 NW (310°) 19.6mph 29.9mph 8°C 4°C
9/12/19 05:43 EGVA 090543Z AUTO 32013G27KT 9999 -DZ OVC035 08/04 A2950 RMK AO2 DZB43 PRESRR SLP995 -DZ NW (320°) 15.0mph 31.1mph 8°C 4°C
9/12/19 05:11 EGVA 090511Z AUTO 33012G24KT 9999 BKN033 08/05 A2945 RMK AO2 PRESRR SLP978 NNW (330°) 13.8mph 27.6mph 8°C 5°C
9/12/19 04:49 EGVA 090449Z AUTO 33020G30KT 9999 FEW016 SCT022 BKN034 BKN045 08/06 A2941 RMK AO2 RAE31DZB33E34RAB34E48 SLP964 NNW (330°) 23.0mph 34.5mph 8°C 6°C
9/12/19 03:56 EGVA 090356Z AUTO 28014KT 9999 -RA FEW020 SCT027 OVC034 07/06 A2932 RMK AO2 PK WND 27027/37 RAB11E28RAB38 SLP934 P0002 T00700063 -RA W (280°) 16.1mph 7°C 6.3°C
9/12/19 03:48 EGVA 090348Z AUTO 28016G27KT 9999 -RA SCT027 OVC034 07/06 A2931 RMK AO2 RAB11E28RAB38 PRESRR SLP930 -RA W (280°) 18.4mph 31.1mph 7°C 6°C
9/12/19 03:11 EGVA 090311Z AUTO 26020G25KT 9999 -RA FEW012 BKN030 OVC037 07/05 A2927 RMK AO2 RAB11 SLP917 -RA W (260°) 23.0mph 28.8mph 7°C 5°C
9/12/19 02:38 EGVA 090238Z AUTO 25018KT 9999 -RA OVC036 07/05 A2928 RMK AO2 RAE18RAB38 SLP920 -RA WSW (250°) 20.7mph 7°C 5°C
9/12/19 02:18 EGVA 090218Z AUTO 25017KT 9999 OVC033 07/05 A2928 RMK AO2 RAE18 SLP920 WSW (250°) 19.6mph 7°C 5°C
9/12/19 01:43 EGVA 090143Z AUTO 26018KT 9999 -RA FEW028 BKN036 BKN060 07/04 A2927 RMK AO2 RAB43 SLP916 -RA W (260°) 20.7mph 7°C 4°C
9/12/19 01:16 EGVA 090116Z AUTO 25013KT 9999 FEW029 SCT039 06/04 A2928 RMK AO2 SLP920 WSW (250°) 15.0mph 6°C 4°C
8/12/19 23:56 EGVA 082356Z AUTO 27017KT 9999 FEW019 BKN032 BKN041 06/05 A2925 RMK AO2 RAB36E54 SLP910 P0000 60010 T00600054 10061 20049 401140049 55022 W (270°) 19.6mph 6°C 5.4°C
8/12/19 23:46 EGVA 082346Z AUTO 27014KT 9999 -RA FEW012 SCT020 BKN030 OVC042 06/06 A2924 RMK AO2 RAB36 SLP906 -RA W (270°) 16.1mph 6°C 6°C
8/12/19 23:16 EGVA 082316Z AUTO 26015KT 9999 BKN013 OVC018 06/05 A2923 RMK AO2 CIG 013V019 BKN V SCT SLP903 W (260°) 17.3mph 6°C 5°C
8/12/19 22:51 EGVA 082251Z AUTO 21014KT 9999 -RA BKN017 OVC023 06/05 A2922 RMK AO2 CIG 015 RWY09 SLP899 -RA SSW (210°) 16.1mph 6°C 5°C
8/12/19 22:16 EGVA 082216Z AUTO 22012KT 9999 -RA FEW019 BKN023 OVC033 05/04 A2925 RMK AO2 CIG 023V034 SLP910 -RA SW (220°) 13.8mph 5°C 4°C
8/12/19 21:35 EGVA 082135Z AUTO 22019G25KT 9999 -RA SCT032 05/03 A2928 RMK AO2 RAB35 PRESFR SLP920 -RA SW (220°) 21.9mph 28.8mph 5°C 3°C
8/12/19 21:11 EGVA 082111Z AUTO 23016G22KT 9999 SCT027 05/04 A2931 RMK AO2 SLP930 SW (230°) 18.4mph 25.3mph 5°C 4°C
8/12/19 20:40 EGVA 082040Z AUTO 22018G26KT 9999 BKN023 OVC031 06/04 A2933 RMK AO2 RAB08E40 CIG 023V031 BKN V SCT CIG 022 RWY09 SLP937 SW (220°) 20.7mph 29.9mph 6°C 4°C
8/12/19 20:18 EGVA 082018Z AUTO 23016G27KT 9999 -RA SCT024 BKN029 06/04 A2936 RMK AO2 RAB08 SLP947 -RA SW (230°) 18.4mph 31.1mph 6°C 4°C
8/12/19 19:41 EGVA 081941Z AUTO 22014KT 9999 -RA BKN023 OVC029 06/04 A2937 RMK AO2 RAB41 SLP951 -RA SW (220°) 16.1mph 6°C 4°C
8/12/19 19:01 EGVA 081901Z AUTO 24013KT 9999 BKN025 BKN035 BKN044 06/04 A2939 RMK AO2 CIG 025V035 SLP957 WSW (240°) 15.0mph 6°C 4°C
8/12/19 18:50 EGVA 081850Z AUTO 23014G22KT 9999 -RA SCT024 BKN031 06/04 A2939 RMK AO2 RAE18RAB40 SLP957 -RA SW (230°) 16.1mph 25.3mph 6°C 4°C
8/12/19 18:18 EGVA 081818Z AUTO 24013KT 9999 BKN026 OVC034 06/04 A2941 RMK AO2 RAE18 SLP964 WSW (240°) 15.0mph 6°C 4°C
8/12/19 17:51 EGVA 081751Z AUTO 24009KT 9999 BKN028 BKN035 06/04 A2942 RMK AO2 CIG 028V036 BKN028 V SCT SLP967 WSW (240°) 10.4mph 6°C 4°C
8/12/19 17:11 EGVA 081711Z AUTO 25015G27KT 9999 SCT023 SCT035 06/03 A2943 RMK AO2 SLP971 WSW (250°) 17.3mph 31.1mph 6°C 3°C
8/12/19 16:24 EGVA 081624Z AUTO 25017G27KT 9999 SCT025 06/03 A2944 RMK AO2 RAB06E24 SLP974 WSW (250°) 19.6mph 31.1mph 6°C 3°C
8/12/19 16:22 EGVA 081622Z AUTO 25020G35KT 9999 -RA SCT025 06/03 A2944 RMK AO2 RAB06 SLP974 -RA WSW (250°) 23.0mph 40.3mph 6°C 3°C
8/12/19 15:45 EGVA 081545Z AUTO 25019G25KT 9999 SCT023 BKN035 07/04 A2943 RMK AO2 RAB06E15DZB17E18RAB18E35 SLP970 WSW (250°) 21.9mph 28.8mph 7°C 4°C
8/12/19 15:17 EGVA 081517Z AUTO 24020G25KT 9999 -DZ FEW020 SCT029 SCT037 07/04 A2944 RMK AO2 RAB06E15DZB17 SLP974 -DZ WSW (240°) 23.0mph 28.8mph 7°C 4°C
8/12/19 14:22 EGVA 081422Z AUTO 24013G21KT 9999 SCT035 SCT046 07/04 A2947 RMK AO2 RAE03DZB03E12 SLP984 WSW (240°) 15.0mph 24.2mph 7°C 4°C
8/12/19 14:12 EGVA 081412Z AUTO 26015KT 9999 FEW025 BKN036 BKN047 06/04 A2947 RMK AO2 RAE03DZB03E12 SLP984 W (260°) 17.3mph 6°C 4°C
8/12/19 13:45 EGVA 081345Z AUTO 25029G38KT 9999 -RA FEW021 09/04 A2948 RMK AO2 RAB45 SLP987 -RA WSW (250°) 33.4mph 43.7mph 9°C 4°C
8/12/19 12:56 EGVA 081256Z AUTO 24017KT 9999 FEW029 08/05 A2950 RMK AO2 PK WND 26033/16 DZB04E11RAB11E30 SLP994 P0000 T00770050 WSW (240°) 19.6mph 7.7°C 5°C
8/12/19 12:40 EGVA 081240Z AUTO 26019KT 9999 SCT031 SCT042 07/05 A2951 RMK AO2 DZB04E11RAB11E30 SLP998 W (260°) 21.9mph 7°C 5°C
8/12/19 12:19 EGVA 081219Z AUTO 25024G33KT 9999 -RA SCT029 BKN036 08/05 A2951 RMK AO2 DZB04E11RAB11 SLP997 -RA WSW (250°) 27.6mph 38.0mph 8°C 5°C
8/12/19 11:36 EGVA 081136Z AUTO 25022G30KT 9999 BKN030 BKN040 09/05 A2952 RMK AO2 SLP000 WSW (250°) 25.3mph 34.5mph 9°C 5°C
8/12/19 11:16 EGVA 081116Z AUTO 25020G26KT 9999 SCT028 BKN036 09/05 A2952 RMK AO2 SLP000 WSW (250°) 23.0mph 29.9mph 9°C 5°C
8/12/19 10:31 EGVA 081031Z AUTO 24019G28KT 9999 SCT028 10/05 A2953 RMK AO2 SLP004 WSW (240°) 21.9mph 32.2mph 10°C 5°C
8/12/19 10:16 EGVA 081016Z AUTO 25022G25KT 9999 BKN029 BKN036 10/05 A2953 RMK AO2 CIG 029V036 SLP004 WSW (250°) 25.3mph 28.8mph 10°C 5°C
8/12/19 08:56 EGVA 080856Z AUTO 25017KT 9999 FEW044 08/05 A2953 RMK AO2 SLP004 T00840051 51018 WSW (250°) 19.6mph 8.4°C 5.1°C